sensor_id;sensor_type;location;lat;lon;timestamp;P1;durP1;ratioP1;P2;durP2;ratioP2
81231;SDS011;70703;55.652;37.710;2024-01-15T00:00:02;24.20;;;14.68;;
81231;SDS011;70703;55.652;37.710;2024-01-15T00:00:21;22.85;;;14.10;;
81231;SDS011;70703;55.652;37.710;2024-01-15T00:00:33;23.02;;;14.23;;
81231;SDS011;70703;55.652;37.710;2024-01-15T00:00:45;23.58;;;14.30;;
81231;SDS011;70703;55.652;37.710;2024-01-15T00:00:57;23.40;;;14.18;;
81231;SDS011;70703;55.652;37.710;2024-01-15T00:01:09;23.73;;;14.10;;
81231;SDS011;70703;55.652;37.710;2024-01-15T00:01:21;23.60;;;14.30;;
81231;SDS011;70703;55.652;37.710;2024-01-15T00:01:34;22.55;;;14.10;;
81231;SDS011;70703;55.652;37.710;2024-01-15T00:01:45;22.42;;;14.16;;
81231;SDS011;70703;55.652;37.710;2024-01-15T00:01:56;21.13;;;14.00;;
81231;SDS011;70703;55.652;37.710;2024-01-15T00:02:09;23.20;;;14.20;;
81231;SDS011;70703;55.652;37.710;2024-01-15T00:02:20;23.35;;;14.18;;
81231;SDS011;70703;55.652;37.710;2024-01-15T00:02:31;25.02;;;14.35;;
81231;SDS011;70703;55.652;37.710;2024-01-15T00:02:43;25.35;;;14.38;;
81231;SDS011;70703;55.652;37.710;2024-01-15T00:02:55;26.17;;;14.55;;
81231;SDS011;70703;55.652;37.710;2024-01-15T00:03:09;24.63;;;14.23;;
81231;SDS011;70703;55.652;37.710;2024-01-15T00:03:22;23.45;;;14.25;;
81231;SDS011;70703;55.652;37.710;2024-01-15T00:03:34;22.88;;;14.27;;
81231;SDS011;70703;55.652;37.710;2024-01-15T00:03:46;22.88;;;14.23;;
81231;SDS011;70703;55.652;37.710;2024-01-15T00:03:57;22.60;;;14.60;;
81231;SDS011;70703;55.652;37.710;2024-01-15T00:04:10;23.58;;;14.80;;
81231;SDS011;70703;55.652;37.710;2024-01-15T00:04:22;23.10;;;14.70;;
81231;SDS011;70703;55.652;37.710;2024-01-15T00:04:36;23.55;;;14.70;;
81231;SDS011;70703;55.652;37.710;2024-01-15T00:04:47;22.52;;;14.85;;
81231;SDS011;70703;55.652;37.710;2024-01-15T00:04:59;23.08;;;15.02;;
81231;SDS011;70703;55.652;37.710;2024-01-15T00:05:11;22.90;;;14.55;;
81231;SDS011;70703;55.652;37.710;2024-01-15T00:05:22;22.17;;;14.32;;
81231;SDS011;70703;55.652;37.710;2024-01-15T00:05:34;21.13;;;13.95;;
81231;SDS011;70703;55.652;37.710;2024-01-15T00:05:45;21.70;;;14.02;;
81231;SDS011;70703;55.652;37.710;2024-01-15T00:05:57;23.00;;;14.25;;
81231;SDS011;70703;55.652;37.710;2024-01-15T00:06:10;23.95;;;14.60;;
81231;SDS011;70703;55.652;37.710;2024-01-15T00:06:23;23.55;;;14.30;;
81231;SDS011;70703;55.652;37.710;2024-01-15T00:06:34;22.40;;;14.15;;
81231;SDS011;70703;55.652;37.710;2024-01-15T00:06:46;23.98;;;14.20;;
81231;SDS011;70703;55.652;37.710;2024-01-15T00:06:57;24.20;;;14.50;;
81231;SDS011;70703;55.652;37.710;2024-01-15T00:07:09;23.83;;;14.60;;
81231;SDS011;70703;55.652;37.710;2024-01-15T00:07:20;23.20;;;14.35;;
81231;SDS011;70703;55.652;37.710;2024-01-15T00:07:32;22.98;;;14.27;;
81231;SDS011;70703;55.652;37.710;2024-01-15T00:07:43;22.65;;;14.40;;
81231;SDS011;70703;55.652;37.710;2024-01-15T00:07:55;22.92;;;14.57;;
81231;SDS011;70703;55.652;37.710;2024-01-15T00:08:06;22.90;;;14.55;;
81231;SDS011;70703;55.652;37.710;2024-01-15T00:08:19;24.65;;;14.95;;
81231;SDS011;70703;55.652;37.710;2024-01-15T00:08:29;23.48;;;14.80;;
81231;SDS011;70703;55.652;37.710;2024-01-15T00:08:41;22.05;;;14.48;;
81231;SDS011;70703;55.652;37.710;2024-01-15T00:08:52;22.85;;;14.07;;
81231;SDS011;70703;55.652;37.710;2024-01-15T00:09:04;24.25;;;14.15;;
81231;SDS011;70703;55.652;37.710;2024-01-15T00:09:17;25.15;;;14.32;;
81231;SDS011;70703;55.652;37.710;2024-01-15T00:09:30;22.45;;;14.13;;
81231;SDS011;70703;55.652;37.710;2024-01-15T00:09:41;21.83;;;14.30;;
81231;SDS011;70703;55.652;37.710;2024-01-15T00:09:53;23.50;;;14.90;;
81231;SDS011;70703;55.652;37.710;2024-01-15T00:10:05;25.40;;;14.98;;
81231;SDS011;70703;55.652;37.710;2024-01-15T00:10:18;25.50;;;14.80;;
81231;SDS011;70703;55.652;37.710;2024-01-15T00:10:30;23.33;;;14.55;;
81231;SDS011;70703;55.652;37.710;2024-01-15T00:10:43;22.25;;;14.05;;
81231;SDS011;70703;55.652;37.710;2024-01-15T00:10:54;23.33;;;13.80;;
81231;SDS011;70703;55.652;37.710;2024-01-15T00:11:06;23.42;;;14.00;;
81231;SDS011;70703;55.652;37.710;2024-01-15T00:11:17;23.43;;;14.20;;
81231;SDS011;70703;55.652;37.710;2024-01-15T00:11:29;23.38;;;14.32;;
81231;SDS011;70703;55.652;37.710;2024-01-15T00:11:40;23.60;;;14.70;;
81231;SDS011;70703;55.652;37.710;2024-01-15T00:11:52;23.45;;;14.75;;
81231;SDS011;70703;55.652;37.710;2024-01-15T00:12:05;22.30;;;14.77;;
81231;SDS011;70703;55.652;37.710;2024-01-15T00:12:18;21.55;;;14.38;;
81231;SDS011;70703;55.652;37.710;2024-01-15T00:12:29;22.50;;;14.13;;
81231;SDS011;70703;55.652;37.710;2024-01-15T00:12:41;23.25;;;14.10;;
81231;SDS011;70703;55.652;37.710;2024-01-15T00:12:53;24.63;;;14.35;;
81231;SDS011;70703;55.652;37.710;2024-01-15T00:13:05;23.48;;;14.40;;
81231;SDS011;70703;55.652;37.710;2024-01-15T00:13:16;22.52;;;14.23;;
81231;SDS011;70703;55.652;37.710;2024-01-15T00:13:28;22.50;;;14.13;;
81231;SDS011;70703;55.652;37.710;2024-01-15T00:13:40;23.73;;;14.52;;
81231;SDS011;70703;55.652;37.710;2024-01-15T00:13:52;24.77;;;14.60;;
81231;SDS011;70703;55.652;37.710;2024-01-15T00:14:04;24.85;;;14.60;;
81231;SDS011;70703;55.652;37.710;2024-01-15T00:14:15;24.70;;;14.70;;
81231;SDS011;70703;55.652;37.710;2024-01-15T00:14:31;23.80;;;14.80;;
81231;SDS011;70703;55.652;37.710;2024-01-15T00:14:42;22.90;;;14.70;;
81231;SDS011;70703;55.652;37.710;2024-01-15T00:14:53;22.08;;;14.43;;
81231;SDS011;70703;55.652;37.710;2024-01-15T00:15:05;22.58;;;14.55;;
81231;SDS011;70703;55.652;37.710;2024-01-15T00:15:17;23.83;;;14.70;;
81231;SDS011;70703;55.652;37.710;2024-01-15T00:15:28;25.40;;;14.75;;
81231;SDS011;70703;55.652;37.710;2024-01-15T00:15:41;24.67;;;14.90;;
81231;SDS011;70703;55.652;37.710;2024-01-15T00:15:54;23.17;;;14.75;;
81231;SDS011;70703;55.652;37.710;2024-01-15T00:16:06;22.60;;;14.30;;
81231;SDS011;70703;55.652;37.710;2024-01-15T00:16:17;22.08;;;14.48;;
81231;SDS011;70703;55.652;37.710;2024-01-15T00:16:29;24.08;;;14.75;;
81231;SDS011;70703;55.652;37.710;2024-01-15T00:16:40;25.85;;;14.63;;
81231;SDS011;70703;55.652;37.710;2024-01-15T00:16:52;25.25;;;14.55;;
81231;SDS011;70703;55.652;37.710;2024-01-15T00:17:06;23.77;;;14.60;;
81231;SDS011;70703;55.652;37.710;2024-01-15T00:17:17;23.45;;;14.43;;
81231;SDS011;70703;55.652;37.710;2024-01-15T00:17:29;25.40;;;14.60;;
81231;SDS011;70703;55.652;37.710;2024-01-15T00:17:40;26.73;;;14.93;;
81231;SDS011;70703;55.652;37.710;2024-01-15T00:17:52;25.40;;;15.18;;
81231;SDS011;70703;55.652;37.710;2024-01-15T00:18:03;25.35;;;15.13;;
81231;SDS011;70703;55.652;37.710;2024-01-15T00:18:16;24.30;;;14.93;;
81231;SDS011;70703;55.652;37.710;2024-01-15T00:18:27;22.65;;;14.68;;
81231;SDS011;70703;55.652;37.710;2024-01-15T00:18:38;23.17;;;14.70;;
81231;SDS011;70703;55.652;37.710;2024-01-15T00:18:49;23.13;;;14.63;;
81231;SDS011;70703;55.652;37.710;2024-01-15T00:19:01;23.90;;;14.73;;
81231;SDS011;70703;55.652;37.710;2024-01-15T00:19:13;23.00;;;14.55;;
81231;SDS011;70703;55.652;37.710;2024-01-15T00:19:24;24.38;;;14.45;;
81231;SDS011;70703;55.652;37.710;2024-01-15T00:19:37;24.13;;;14.55;;
81231;SDS011;70703;55.652;37.710;2024-01-15T00:19:49;23.10;;;14.43;;
81231;SDS011;70703;55.652;37.710;2024-01-15T00:20:01;23.55;;;14.70;;
81231;SDS011;70703;55.652;37.710;2024-01-15T00:20:14;24.35;;;14.55;;
81231;SDS011;70703;55.652;37.710;2024-01-15T00:20:26;23.95;;;14.70;;
81231;SDS011;70703;55.652;37.710;2024-01-15T00:20:38;22.25;;;14.43;;
81231;SDS011;70703;55.652;37.710;2024-01-15T00:20:50;23.40;;;14.75;;
81231;SDS011;70703;55.652;37.710;2024-01-15T00:21:02;24.50;;;15.00;;
81231;SDS011;70703;55.652;37.710;2024-01-15T00:21:14;25.20;;;14.93;;
81231;SDS011;70703;55.652;37.710;2024-01-15T00:21:25;23.67;;;14.52;;
81231;SDS011;70703;55.652;37.710;2024-01-15T00:21:38;23.52;;;14.80;;
81231;SDS011;70703;55.652;37.710;2024-01-15T00:21:49;23.10;;;14.80;;
81231;SDS011;70703;55.652;37.710;2024-01-15T00:22:01;23.30;;;14.57;;
81231;SDS011;70703;55.652;37.710;2024-01-15T00:22:14;22.58;;;14.54;;
81231;SDS011;70703;55.652;37.710;2024-01-15T00:22:26;23.35;;;14.80;;
81231;SDS011;70703;55.652;37.710;2024-01-15T00:22:38;23.12;;;14.96;;
81231;SDS011;70703;55.652;37.710;2024-01-15T00:22:50;25.83;;;15.18;;
81231;SDS011;70703;55.652;37.710;2024-01-15T00:23:01;25.05;;;15.13;;
81231;SDS011;70703;55.652;37.710;2024-01-15T00:23:12;23.90;;;15.27;;
81231;SDS011;70703;55.652;37.710;2024-01-15T00:23:24;23.75;;;15.05;;
81231;SDS011;70703;55.652;37.710;2024-01-15T00:23:36;24.15;;;15.00;;
81231;SDS011;70703;55.652;37.710;2024-01-15T00:23:47;23.38;;;14.60;;
81231;SDS011;70703;55.652;37.710;2024-01-15T00:23:57;23.45;;;14.70;;
81231;SDS011;70703;55.652;37.710;2024-01-15T00:24:08;23.58;;;14.85;;
81231;SDS011;70703;55.652;37.710;2024-01-15T00:24:20;23.77;;;14.90;;
81231;SDS011;70703;55.652;37.710;2024-01-15T00:24:32;23.33;;;14.70;;
81231;SDS011;70703;55.652;37.710;2024-01-15T00:24:44;24.88;;;15.13;;
81231;SDS011;70703;55.652;37.710;2024-01-15T00:24:55;26.10;;;15.52;;
81231;SDS011;70703;55.652;37.710;2024-01-15T00:25:06;27.45;;;15.80;;
81231;SDS011;70703;55.652;37.710;2024-01-15T00:25:18;26.10;;;15.40;;
81231;SDS011;70703;55.652;37.710;2024-01-15T00:25:29;24.48;;;14.88;;
81231;SDS011;70703;55.652;37.710;2024-01-15T00:25:41;23.92;;;14.70;;
81231;SDS011;70703;55.652;37.710;2024-01-15T00:25:53;24.50;;;14.57;;
81231;SDS011;70703;55.652;37.710;2024-01-15T00:26:04;23.55;;;14.50;;
81231;SDS011;70703;55.652;37.710;2024-01-15T00:26:15;22.80;;;14.73;;
81231;SDS011;70703;55.652;37.710;2024-01-15T00:26:26;22.55;;;14.73;;
81231;SDS011;70703;55.652;37.710;2024-01-15T00:26:38;25.00;;;15.35;;
81231;SDS011;70703;55.652;37.710;2024-01-15T00:26:49;25.52;;;15.35;;
81231;SDS011;70703;55.652;37.710;2024-01-15T00:27:00;25.52;;;15.60;;
81231;SDS011;70703;55.652;37.710;2024-01-15T00:27:12;23.55;;;15.23;;
81231;SDS011;70703;55.652;37.710;2024-01-15T00:27:25;23.75;;;15.40;;
81231;SDS011;70703;55.652;37.710;2024-01-15T00:27:37;23.50;;;15.35;;
81231;SDS011;70703;55.652;37.710;2024-01-15T00:27:48;22.92;;;14.63;;
81231;SDS011;70703;55.652;37.710;2024-01-15T00:28:00;22.42;;;14.48;;
81231;SDS011;70703;55.652;37.710;2024-01-15T00:28:13;24.63;;;15.07;;
81231;SDS011;70703;55.652;37.710;2024-01-15T00:28:24;25.63;;;15.82;;
81231;SDS011;70703;55.652;37.710;2024-01-15T00:28:35;25.75;;;15.75;;
81231;SDS011;70703;55.652;37.710;2024-01-15T00:28:48;23.10;;;15.20;;
81231;SDS011;70703;55.652;37.710;2024-01-15T00:29:00;22.20;;;14.90;;
81231;SDS011;70703;55.652;37.710;2024-01-15T00:29:11;22.10;;;14.90;;
81231;SDS011;70703;55.652;37.710;2024-01-15T00:29:22;23.60;;;15.13;;
81231;SDS011;70703;55.652;37.710;2024-01-15T00:29:34;23.65;;;14.90;;
81231;SDS011;70703;55.652;37.710;2024-01-15T00:29:47;24.63;;;15.07;;
81231;SDS011;70703;55.652;37.710;2024-01-15T00:29:59;24.73;;;15.07;;
81231;SDS011;70703;55.652;37.710;2024-01-15T00:30:10;24.50;;;14.98;;
81231;SDS011;70703;55.652;37.710;2024-01-15T00:30:22;23.20;;;14.48;;
81231;SDS011;70703;55.652;37.710;2024-01-15T00:30:34;22.80;;;14.52;;
81231;SDS011;70703;55.652;37.710;2024-01-15T00:30:45;23.98;;;14.95;;
81231;SDS011;70703;55.652;37.710;2024-01-15T00:30:56;23.83;;;15.10;;
81231;SDS011;70703;55.652;37.710;2024-01-15T00:31:08;23.08;;;14.98;;
81231;SDS011;70703;55.652;37.710;2024-01-15T00:31:19;22.00;;;14.80;;
81231;SDS011;70703;55.652;37.710;2024-01-15T00:31:30;22.90;;;15.20;;
81231;SDS011;70703;55.652;37.710;2024-01-15T00:31:42;24.05;;;15.55;;
81231;SDS011;70703;55.652;37.710;2024-01-15T00:31:53;25.45;;;15.43;;
81231;SDS011;70703;55.652;37.710;2024-01-15T00:32:07;24.58;;;15.07;;
81231;SDS011;70703;55.652;37.710;2024-01-15T00:32:18;24.75;;;15.27;;
81231;SDS011;70703;55.652;37.710;2024-01-15T00:32:30;27.08;;;15.20;;
81231;SDS011;70703;55.652;37.710;2024-01-15T00:32:42;26.90;;;14.98;;
81231;SDS011;70703;55.652;37.710;2024-01-15T00:32:53;25.27;;;15.27;;
81231;SDS011;70703;55.652;37.710;2024-01-15T00:33:04;24.20;;;15.24;;
81231;SDS011;70703;55.652;37.710;2024-01-15T00:33:15;24.90;;;15.43;;
81231;SDS011;70703;55.652;37.710;2024-01-15T00:33:27;24.80;;;15.48;;
81231;SDS011;70703;55.652;37.710;2024-01-15T00:33:39;23.73;;;15.23;;
81231;SDS011;70703;55.652;37.710;2024-01-15T00:33:52;23.13;;;15.05;;
81231;SDS011;70703;55.652;37.710;2024-01-15T00:34:04;24.00;;;15.20;;
81231;SDS011;70703;55.652;37.710;2024-01-15T00:34:15;24.50;;;15.30;;
81231;SDS011;70703;55.652;37.710;2024-01-15T00:34:26;24.63;;;15.50;;
81231;SDS011;70703;55.652;37.710;2024-01-15T00:34:38;23.98;;;15.23;;
81231;SDS011;70703;55.652;37.710;2024-01-15T00:34:49;24.42;;;14.80;;
81231;SDS011;70703;55.652;37.710;2024-01-15T00:35:02;25.15;;;14.65;;
81231;SDS011;70703;55.652;37.710;2024-01-15T00:35:14;24.98;;;15.10;;
81231;SDS011;70703;55.652;37.710;2024-01-15T00:35:25;24.40;;;15.38;;
81231;SDS011;70703;55.652;37.710;2024-01-15T00:35:37;23.92;;;15.13;;
81231;SDS011;70703;55.652;37.710;2024-01-15T00:35:50;23.10;;;14.50;;
81231;SDS011;70703;55.652;37.710;2024-01-15T00:36:01;22.55;;;14.40;;
81231;SDS011;70703;55.652;37.710;2024-01-15T00:36:13;23.33;;;14.98;;
81231;SDS011;70703;55.652;37.710;2024-01-15T00:36:25;25.08;;;15.88;;
81231;SDS011;70703;55.652;37.710;2024-01-15T00:36:37;25.92;;;15.77;;
81231;SDS011;70703;55.652;37.710;2024-01-15T00:36:50;24.80;;;15.57;;
81231;SDS011;70703;55.652;37.710;2024-01-15T00:37:01;24.65;;;15.48;;
81231;SDS011;70703;55.652;37.710;2024-01-15T00:37:14;24.13;;;15.63;;
81231;SDS011;70703;55.652;37.710;2024-01-15T00:37:26;24.15;;;15.63;;
81231;SDS011;70703;55.652;37.710;2024-01-15T00:37:37;24.48;;;15.65;;
81231;SDS011;70703;55.652;37.710;2024-01-15T00:37:48;24.83;;;15.27;;
81231;SDS011;70703;55.652;37.710;2024-01-15T00:38:01;23.20;;;14.82;;
81231;SDS011;70703;55.652;37.710;2024-01-15T00:38:13;22.80;;;14.80;;
81231;SDS011;70703;55.652;37.710;2024-01-15T00:38:25;24.33;;;15.35;;
81231;SDS011;70703;55.652;37.710;2024-01-15T00:38:35;25.33;;;15.57;;
81231;SDS011;70703;55.652;37.710;2024-01-15T00:38:46;24.83;;;15.13;;
81231;SDS011;70703;55.652;37.710;2024-01-15T00:38:57;24.90;;;14.85;;
81231;SDS011;70703;55.652;37.710;2024-01-15T00:39:10;24.83;;;15.07;;
81231;SDS011;70703;55.652;37.710;2024-01-15T00:39:21;23.95;;;15.07;;
81231;SDS011;70703;55.652;37.710;2024-01-15T00:39:32;24.13;;;15.25;;
81231;SDS011;70703;55.652;37.710;2024-01-15T00:39:44;22.80;;;14.90;;
81231;SDS011;70703;55.652;37.710;2024-01-15T00:39:56;23.15;;;14.95;;
81231;SDS011;70703;55.652;37.710;2024-01-15T00:40:08;24.92;;;15.30;;
81231;SDS011;70703;55.652;37.710;2024-01-15T00:40:19;25.30;;;15.70;;
81231;SDS011;70703;55.652;37.710;2024-01-15T00:40:30;24.30;;;15.43;;
81231;SDS011;70703;55.652;37.710;2024-01-15T00:40:41;23.73;;;15.50;;
81231;SDS011;70703;55.652;37.710;2024-01-15T00:40:53;24.63;;;15.48;;
81231;SDS011;70703;55.652;37.710;2024-01-15T00:41:04;24.00;;;15.27;;
81231;SDS011;70703;55.652;37.710;2024-01-15T00:41:16;24.25;;;15.50;;
81231;SDS011;70703;55.652;37.710;2024-01-15T00:41:29;23.42;;;15.45;;
81231;SDS011;70703;55.652;37.710;2024-01-15T00:41:42;23.92;;;15.30;;
81231;SDS011;70703;55.652;37.710;2024-01-15T00:41:54;23.85;;;15.35;;
81231;SDS011;70703;55.652;37.710;2024-01-15T00:42:06;23.83;;;15.27;;
81231;SDS011;70703;55.652;37.710;2024-01-15T00:42:17;23.73;;;15.40;;
81231;SDS011;70703;55.652;37.710;2024-01-15T00:42:30;24.90;;;15.25;;
81231;SDS011;70703;55.652;37.710;2024-01-15T00:42:42;25.75;;;15.38;;
81231;SDS011;70703;55.652;37.710;2024-01-15T00:42:54;26.30;;;15.68;;
81231;SDS011;70703;55.652;37.710;2024-01-15T00:43:06;26.17;;;15.48;;
81231;SDS011;70703;55.652;37.710;2024-01-15T00:43:18;25.25;;;15.25;;
81231;SDS011;70703;55.652;37.710;2024-01-15T00:43:30;23.40;;;15.00;;
81231;SDS011;70703;55.652;37.710;2024-01-15T00:43:40;23.92;;;15.05;;
81231;SDS011;70703;55.652;37.710;2024-01-15T00:43:52;26.00;;;15.50;;
81231;SDS011;70703;55.652;37.710;2024-01-15T00:44:04;26.50;;;15.68;;
81231;SDS011;70703;55.652;37.710;2024-01-15T00:44:15;24.63;;;15.52;;
81231;SDS011;70703;55.652;37.710;2024-01-15T00:44:27;23.27;;;15.13;;
81231;SDS011;70703;55.652;37.710;2024-01-15T00:44:40;30.27;;;19.05;;
81231;SDS011;70703;55.652;37.710;2024-01-15T00:44:51;34.80;;;21.50;;
81231;SDS011;70703;55.652;37.710;2024-01-15T00:45:04;34.28;;;21.50;;
81231;SDS011;70703;55.652;37.710;2024-01-15T00:45:17;88.13;;;53.45;;
81231;SDS011;70703;55.652;37.710;2024-01-15T00:45:29;105.28;;;62.70;;
81231;SDS011;70703;55.652;37.710;2024-01-15T00:45:42;69.30;;;42.13;;
81231;SDS011;70703;55.652;37.710;2024-01-15T00:45:53;36.28;;;23.20;;
81231;SDS011;70703;55.652;37.710;2024-01-15T00:46:04;27.63;;;18.45;;
81231;SDS011;70703;55.652;37.710;2024-01-15T00:46:16;27.13;;;17.73;;
81231;SDS011;70703;55.652;37.710;2024-01-15T00:46:28;37.42;;;23.45;;
81231;SDS011;70703;55.652;37.710;2024-01-15T00:46:43;44.90;;;27.55;;
81231;SDS011;70703;55.652;37.710;2024-01-15T00:46:56;37.58;;;23.17;;
81231;SDS011;70703;55.652;37.710;2024-01-15T00:47:07;29.13;;;18.45;;
81231;SDS011;70703;55.652;37.710;2024-01-15T00:47:18;25.48;;;16.77;;
81231;SDS011;70703;55.652;37.710;2024-01-15T00:47:29;27.35;;;16.85;;
81231;SDS011;70703;55.652;37.710;2024-01-15T00:47:41;31.27;;;19.27;;
81231;SDS011;70703;55.652;37.710;2024-01-15T00:47:53;31.70;;;19.33;;
81231;SDS011;70703;55.652;37.710;2024-01-15T00:48:07;26.20;;;17.00;;
81231;SDS011;70703;55.652;37.710;2024-01-15T00:48:19;26.75;;;17.58;;
81231;SDS011;70703;55.652;37.710;2024-01-15T00:48:30;28.60;;;17.95;;
81231;SDS011;70703;55.652;37.710;2024-01-15T00:48:43;27.92;;;17.73;;
81231;SDS011;70703;55.652;37.710;2024-01-15T00:48:54;24.95;;;16.58;;
81231;SDS011;70703;55.652;37.710;2024-01-15T00:49:05;23.78;;;15.34;;
81231;SDS011;70703;55.652;37.710;2024-01-15T00:49:16;23.97;;;15.20;;
81231;SDS011;70703;55.652;37.710;2024-01-15T00:49:28;24.38;;;15.57;;
81231;SDS011;70703;55.652;37.710;2024-01-15T00:49:41;24.55;;;15.65;;
81231;SDS011;70703;55.652;37.710;2024-01-15T00:49:53;24.80;;;15.50;;
81231;SDS011;70703;55.652;37.710;2024-01-15T00:50:05;24.25;;;15.27;;
81231;SDS011;70703;55.652;37.710;2024-01-15T00:50:18;23.27;;;15.00;;
81231;SDS011;70703;55.652;37.710;2024-01-15T00:50:29;24.48;;;15.27;;
81231;SDS011;70703;55.652;37.710;2024-01-15T00:50:42;23.80;;;15.02;;
81231;SDS011;70703;55.652;37.710;2024-01-15T00:50:54;23.98;;;15.18;;
81231;SDS011;70703;55.652;37.710;2024-01-15T00:51:05;23.73;;;15.05;;
81231;SDS011;70703;55.652;37.710;2024-01-15T00:51:17;24.85;;;15.27;;
81231;SDS011;70703;55.652;37.710;2024-01-15T00:51:28;24.00;;;15.32;;
81231;SDS011;70703;55.652;37.710;2024-01-15T00:51:40;25.85;;;16.00;;
81231;SDS011;70703;55.652;37.710;2024-01-15T00:51:52;25.35;;;15.50;;
81231;SDS011;70703;55.652;37.710;2024-01-15T00:52:03;25.13;;;15.35;;
81231;SDS011;70703;55.652;37.710;2024-01-15T00:52:16;23.50;;;15.00;;
81231;SDS011;70703;55.652;37.710;2024-01-15T00:52:28;22.35;;;15.23;;
81231;SDS011;70703;55.652;37.710;2024-01-15T00:52:40;23.40;;;15.68;;
81231;SDS011;70703;55.652;37.710;2024-01-15T00:52:52;23.90;;;15.60;;
81231;SDS011;70703;55.652;37.710;2024-01-15T00:53:04;23.50;;;15.48;;
81231;SDS011;70703;55.652;37.710;2024-01-15T00:53:15;23.50;;;15.40;;
81231;SDS011;70703;55.652;37.710;2024-01-15T00:53:26;24.05;;;15.52;;
81231;SDS011;70703;55.652;37.710;2024-01-15T00:53:38;25.60;;;15.68;;
81231;SDS011;70703;55.652;37.710;2024-01-15T00:53:49;24.88;;;15.48;;
81231;SDS011;70703;55.652;37.710;2024-01-15T00:54:01;23.90;;;15.05;;
81231;SDS011;70703;55.652;37.710;2024-01-15T00:54:14;24.05;;;15.30;;
81231;SDS011;70703;55.652;37.710;2024-01-15T00:54:26;24.60;;;15.52;;
81231;SDS011;70703;55.652;37.710;2024-01-15T00:54:38;26.63;;;15.98;;
81231;SDS011;70703;55.652;37.710;2024-01-15T00:54:50;25.35;;;15.63;;
81231;SDS011;70703;55.652;37.710;2024-01-15T00:55:03;25.00;;;15.73;;
81231;SDS011;70703;55.652;37.710;2024-01-15T00:55:14;23.77;;;15.55;;
81231;SDS011;70703;55.652;37.710;2024-01-15T00:55:25;23.83;;;15.70;;
81231;SDS011;70703;55.652;37.710;2024-01-15T00:55:36;23.85;;;15.52;;
81231;SDS011;70703;55.652;37.710;2024-01-15T00:55:49;23.98;;;15.77;;
81231;SDS011;70703;55.652;37.710;2024-01-15T00:56:01;24.05;;;15.57;;
81231;SDS011;70703;55.652;37.710;2024-01-15T00:56:13;24.98;;;15.77;;
81231;SDS011;70703;55.652;37.710;2024-01-15T00:56:25;25.55;;;15.90;;
81231;SDS011;70703;55.652;37.710;2024-01-15T00:56:37;27.08;;;16.35;;
81231;SDS011;70703;55.652;37.710;2024-01-15T00:56:48;27.34;;;16.04;;
81231;SDS011;70703;55.652;37.710;2024-01-15T00:57:00;25.42;;;16.00;;
81231;SDS011;70703;55.652;37.710;2024-01-15T00:57:11;24.85;;;15.93;;
81231;SDS011;70703;55.652;37.710;2024-01-15T00:57:23;24.35;;;16.00;;
81231;SDS011;70703;55.652;37.710;2024-01-15T00:57:37;24.70;;;15.52;;
81231;SDS011;70703;55.652;37.710;2024-01-15T00:57:48;24.83;;;15.52;;
81231;SDS011;70703;55.652;37.710;2024-01-15T00:57:59;24.42;;;15.82;;
81231;SDS011;70703;55.652;37.710;2024-01-15T00:58:11;25.17;;;16.08;;
81231;SDS011;70703;55.652;37.710;2024-01-15T00:58:23;25.38;;;16.27;;
81231;SDS011;70703;55.652;37.710;2024-01-15T00:58:34;24.85;;;16.20;;
81231;SDS011;70703;55.652;37.710;2024-01-15T00:58:46;24.40;;;15.88;;
81231;SDS011;70703;55.652;37.710;2024-01-15T00:58:58;25.38;;;15.93;;
81231;SDS011;70703;55.652;37.710;2024-01-15T00:59:10;25.65;;;15.90;;
81231;SDS011;70703;55.652;37.710;2024-01-15T00:59:25;26.30;;;16.40;;
81231;SDS011;70703;55.652;37.710;2024-01-15T00:59:37;26.20;;;16.52;;
81231;SDS011;70703;55.652;37.710;2024-01-15T00:59:49;28.13;;;16.35;;
81231;SDS011;70703;55.652;37.710;2024-01-15T01:00:00;26.85;;;16.42;;
81231;SDS011;70703;55.652;37.710;2024-01-15T01:00:14;25.58;;;16.55;;
81231;SDS011;70703;55.652;37.710;2024-01-15T01:00:27;25.50;;;16.42;;
81231;SDS011;70703;55.652;37.710;2024-01-15T01:00:40;25.52;;;16.48;;
81231;SDS011;70703;55.652;37.710;2024-01-15T01:00:51;25.95;;;16.60;;
81231;SDS011;70703;55.652;37.710;2024-01-15T01:01:03;25.42;;;16.40;;
81231;SDS011;70703;55.652;37.710;2024-01-15T01:01:16;24.08;;;15.95;;
81231;SDS011;70703;55.652;37.710;2024-01-15T01:01:26;23.73;;;15.88;;
81231;SDS011;70703;55.652;37.710;2024-01-15T01:01:38;25.00;;;15.88;;
81231;SDS011;70703;55.652;37.710;2024-01-15T01:01:53;25.48;;;16.10;;
81231;SDS011;70703;55.652;37.710;2024-01-15T01:02:05;25.17;;;16.27;;
81231;SDS011;70703;55.652;37.710;2024-01-15T01:02:17;25.48;;;16.50;;
81231;SDS011;70703;55.652;37.710;2024-01-15T01:02:31;24.52;;;16.02;;
81231;SDS011;70703;55.652;37.710;2024-01-15T01:02:43;23.25;;;15.68;;
81231;SDS011;70703;55.652;37.710;2024-01-15T01:02:55;24.10;;;15.57;;
81231;SDS011;70703;55.652;37.710;2024-01-15T01:03:07;24.10;;;15.30;;
81231;SDS011;70703;55.652;37.710;2024-01-15T01:03:19;24.90;;;15.77;;
81231;SDS011;70703;55.652;37.710;2024-01-15T01:03:30;23.35;;;15.30;;
81231;SDS011;70703;55.652;37.710;2024-01-15T01:03:42;24.33;;;15.73;;
81231;SDS011;70703;55.652;37.710;2024-01-15T01:03:54;24.88;;;15.77;;
81231;SDS011;70703;55.652;37.710;2024-01-15T01:04:05;25.27;;;15.98;;
81231;SDS011;70703;55.652;37.710;2024-01-15T01:04:18;23.90;;;15.45;;
81231;SDS011;70703;55.652;37.710;2024-01-15T01:04:30;22.60;;;15.20;;
81231;SDS011;70703;55.652;37.710;2024-01-15T01:04:41;23.08;;;15.23;;
81231;SDS011;70703;55.652;37.710;2024-01-15T01:04:54;25.55;;;15.52;;
81231;SDS011;70703;55.652;37.710;2024-01-15T01:05:06;26.85;;;16.02;;
81231;SDS011;70703;55.652;37.710;2024-01-15T01:05:17;26.63;;;15.82;;
81231;SDS011;70703;55.652;37.710;2024-01-15T01:05:29;25.25;;;15.95;;
81231;SDS011;70703;55.652;37.710;2024-01-15T01:05:41;25.08;;;15.88;;
81231;SDS011;70703;55.652;37.710;2024-01-15T01:05:53;24.75;;;16.00;;
81231;SDS011;70703;55.652;37.710;2024-01-15T01:06:05;25.05;;;16.17;;
81231;SDS011;70703;55.652;37.710;2024-01-15T01:06:16;25.17;;;16.42;;
81231;SDS011;70703;55.652;37.710;2024-01-15T01:06:28;25.65;;;16.25;;
81231;SDS011;70703;55.652;37.710;2024-01-15T01:06:39;25.80;;;16.13;;
81231;SDS011;70703;55.652;37.710;2024-01-15T01:06:51;26.58;;;16.38;;
81231;SDS011;70703;55.652;37.710;2024-01-15T01:07:02;26.88;;;16.67;;
81231;SDS011;70703;55.652;37.710;2024-01-15T01:07:14;25.90;;;16.70;;
81231;SDS011;70703;55.652;37.710;2024-01-15T01:07:25;24.98;;;16.45;;
81231;SDS011;70703;55.652;37.710;2024-01-15T01:07:37;24.38;;;15.93;;
81231;SDS011;70703;55.652;37.710;2024-01-15T01:07:49;25.52;;;15.82;;
81231;SDS011;70703;55.652;37.710;2024-01-15T01:08:00;25.75;;;16.08;;
81231;SDS011;70703;55.652;37.710;2024-01-15T01:08:12;23.55;;;15.85;;
81231;SDS011;70703;55.652;37.710;2024-01-15T01:08:24;23.25;;;15.95;;